createdAt,value
2019-02-02T00:02:04.337Z,2.00
2019-02-02T00:07:08.083Z,2.00
2019-02-02T00:12:11.850Z,2.00
2019-02-02T00:17:15.542Z,2.00
2019-02-02T00:22:19.218Z,2.00
2019-02-02T00:27:23.298Z,2.00
2019-02-02T00:32:27.343Z,2.00
2019-02-02T00:37:31.040Z,2.10
2019-02-02T00:42:34.914Z,2.00
2019-02-02T00:47:38.698Z,2.10
2019-02-02T00:52:42.465Z,2.10
2019-02-02T00:57:53.632Z,2.00
2019-02-02T01:02:52.210Z,2.00
2019-02-02T01:07:56.261Z,2.00
2019-02-02T01:13:00.301Z,2.00
2019-02-02T01:18:04.556Z,1.90
2019-02-02T01:23:08.417Z,1.90
2019-02-02T01:28:12.170Z,1.90
2019-02-02T01:33:15.942Z,1.80
2019-02-02T01:38:19.626Z,1.80
2019-02-02T01:43:23.329Z,1.80
2019-02-02T01:48:27.110Z,1.70
2019-02-02T01:53:30.817Z,1.80
2019-02-02T01:58:34.572Z,1.70
2019-02-02T02:03:38.305Z,1.70
2019-02-02T02:08:42.339Z,1.80
2019-02-02T02:13:46.064Z,1.80
2019-02-02T02:18:49.755Z,1.70
2019-02-02T02:23:53.585Z,1.80
2019-02-02T02:28:57.299Z,1.80
2019-02-02T02:34:01.010Z,1.80
2019-02-02T02:39:07.292Z,1.80
2019-02-02T02:44:11.179Z,1.80
2019-02-02T02:49:14.893Z,1.80
2019-02-02T02:54:18.892Z,1.80
2019-02-02T02:59:22.578Z,1.80
2019-02-02T03:04:26.299Z,1.80
2019-02-02T03:09:30.011Z,1.80
2019-02-02T03:14:33.726Z,1.80
2019-02-02T03:19:37.494Z,1.80
2019-02-02T03:24:41.259Z,1.80
2019-02-02T03:29:44.946Z,1.80
2019-02-02T03:34:48.629Z,1.90
2019-02-02T03:39:52.594Z,1.80
2019-02-02T03:44:56.301Z,1.80
2019-02-02T03:50:00.021Z,1.70
2019-02-02T03:55:04.486Z,1.70
2019-02-02T04:00:11.262Z,1.80
2019-02-02T04:05:20.518Z,1.80
2019-02-02T04:10:24.374Z,1.80
2019-02-02T04:15:28.425Z,1.80
2019-02-02T04:20:32.406Z,1.80
2019-02-02T04:25:36.234Z,1.80
2019-02-02T04:30:40.061Z,1.70
2019-02-02T04:35:43.758Z,1.70
2019-02-02T04:40:47.447Z,1.80
2019-02-02T04:45:51.158Z,1.70
2019-02-02T04:50:54.867Z,1.70
2019-02-02T04:55:58.858Z,1.70
2019-02-02T05:01:02.566Z,1.70
2019-02-02T05:06:06.251Z,1.80
2019-02-02T05:11:09.961Z,1.70
2019-02-02T05:16:13.673Z,1.70
2019-02-02T05:21:17.370Z,1.70
2019-02-02T05:26:21.394Z,1.70
2019-02-02T05:31:26.278Z,1.80
2019-02-02T05:36:29.989Z,1.70
2019-02-02T05:41:33.705Z,1.70
2019-02-02T05:46:37.717Z,1.70
2019-02-02T05:51:41.403Z,1.70
2019-02-02T05:56:45.350Z,1.60
2019-02-02T06:01:49.038Z,1.70
2019-02-02T06:06:52.726Z,1.60
2019-02-02T06:11:56.421Z,1.60
2019-02-02T06:17:00.130Z,1.60
2019-02-02T06:22:03.897Z,1.60
2019-02-02T06:27:07.582Z,1.70
2019-02-02T06:32:13.276Z,1.60
2019-02-02T06:37:16.973Z,1.70
2019-02-02T06:42:20.666Z,1.60
2019-02-02T06:47:24.354Z,1.60
2019-02-02T06:52:28.038Z,1.60
2019-02-02T06:57:32.070Z,1.60
2019-02-02T07:02:35.769Z,1.60
2019-02-02T07:07:39.826Z,1.70
2019-02-02T07:12:43.778Z,1.60
2019-02-02T07:17:48.417Z,1.60
2019-02-02T07:22:52.418Z,1.70
2019-02-02T07:27:56.706Z,1.70
2019-02-02T07:33:00.428Z,1.70
2019-02-02T07:38:04.394Z,1.70
2019-02-02T07:43:08.075Z,1.70
2019-02-02T07:48:12.213Z,1.70
2019-02-02T07:53:15.922Z,1.70
2019-02-02T07:58:19.609Z,1.70
2019-02-02T08:03:23.546Z,1.70
2019-02-02T08:08:27.610Z,1.70
2019-02-02T08:13:31.357Z,1.80
2019-02-02T08:18:35.139Z,1.80
2019-02-02T08:23:38.930Z,1.80
2019-02-02T08:28:42.673Z,1.80
2019-02-02T08:33:46.417Z,1.80
2019-02-02T08:38:50.114Z,1.80
2019-02-02T08:43:53.895Z,1.90
2019-02-02T08:48:57.584Z,1.90
2019-02-02T08:54:03.529Z,1.90
2019-02-02T08:59:07.081Z,1.90
2019-02-02T09:04:10.853Z,2.00
2019-02-02T09:09:14.878Z,2.00
2019-02-02T09:14:18.904Z,2.00
2019-02-02T09:19:23.631Z,2.00
2019-02-02T09:24:27.588Z,2.00
2019-02-02T09:29:31.317Z,2.00
2019-02-02T09:34:35.212Z,2.00
2019-02-02T09:39:38.958Z,2.10
2019-02-02T09:44:42.658Z,2.20
2019-02-02T09:49:49.450Z,2.20
2019-02-02T09:54:53.238Z,2.20
2019-02-02T09:59:56.936Z,2.30
2019-02-02T10:05:00.622Z,2.30
2019-02-02T10:10:05.794Z,2.30
2019-02-02T10:15:09.842Z,2.30
2019-02-02T10:20:15.872Z,2.30
2019-02-02T10:25:21.935Z,2.30
2019-02-02T10:30:44.642Z,2.30
2019-02-02T10:35:48.658Z,2.30
2019-02-02T10:40:52.343Z,2.30
2019-02-02T10:45:56.057Z,2.30
2019-02-02T10:51:00.047Z,2.40
2019-02-02T10:56:03.796Z,2.50
2019-02-02T11:01:07.561Z,2.50
2019-02-02T11:06:11.327Z,2.50
2019-02-02T11:11:15.056Z,2.50
2019-02-02T11:16:18.833Z,2.60
2019-02-02T11:21:22.566Z,2.60
2019-02-02T11:26:26.475Z,2.60
2019-02-02T11:31:30.198Z,2.70
2019-02-02T11:36:33.885Z,2.70
2019-02-02T11:41:37.578Z,2.70
2019-02-02T11:46:41.284Z,2.70
2019-02-02T11:51:44.991Z,2.70
2019-02-02T11:56:48.682Z,2.70
2019-02-02T12:01:52.373Z,2.60
2019-02-02T12:06:56.057Z,2.60
2019-02-02T12:12:00.086Z,2.60
2019-02-02T12:17:03.843Z,2.60
2019-02-02T12:22:07.837Z,2.60
2019-02-02T12:27:11.592Z,2.60
2019-02-02T12:32:25.890Z,2.60
2019-02-02T12:37:20.771Z,2.60
2019-02-02T12:42:24.459Z,2.60
2019-02-02T12:47:28.206Z,2.60
2019-02-02T12:52:31.892Z,2.60
2019-02-02T12:57:35.665Z,2.60
2019-02-02T13:02:39.341Z,2.60
2019-02-02T13:07:43.169Z,2.60
2019-02-02T13:12:46.858Z,2.60
2019-02-02T13:17:50.654Z,2.50
2019-02-02T13:22:54.518Z,2.50
2019-02-02T13:27:58.198Z,2.50
2019-02-02T13:33:02.197Z,2.50
2019-02-02T13:38:06.472Z,2.50
2019-02-02T13:43:10.474Z,2.50
2019-02-02T13:48:14.153Z,2.40
2019-02-02T13:53:17.838Z,2.50
2019-02-02T13:58:21.605Z,2.50
2019-02-02T14:03:25.373Z,2.40
2019-02-02T14:08:29.058Z,2.40
2019-02-02T14:13:32.806Z,2.40
2019-02-02T14:18:36.815Z,2.40
2019-02-02T14:23:40.505Z,2.40
2019-02-02T14:28:44.222Z,2.40
2019-02-02T14:33:47.931Z,2.40
2019-02-02T14:38:51.606Z,2.30
2019-02-02T14:43:55.902Z,2.30
2019-02-02T14:48:59.769Z,2.30
2019-02-02T14:54:03.718Z,2.30
2019-02-02T14:59:07.417Z,2.30
2019-02-02T15:04:11.097Z,2.30
2019-02-02T15:09:14.814Z,2.30
2019-02-02T15:14:18.513Z,2.30
2019-02-02T15:19:22.225Z,2.30
2019-02-02T15:24:25.919Z,2.30
2019-02-02T15:29:29.595Z,2.30
2019-02-02T15:34:33.389Z,2.20
2019-02-02T15:39:40.576Z,2.20
2019-02-02T15:44:44.146Z,2.20
2019-02-02T15:49:55.462Z,2.20
2019-02-02T15:54:59.178Z,2.20
2019-02-02T16:00:02.918Z,2.20
2019-02-02T16:05:09.585Z,2.20
2019-02-02T16:10:18.938Z,2.20
2019-02-02T16:15:22.632Z,2.20
2019-02-02T16:20:28.872Z,2.20
2019-02-02T16:25:32.771Z,2.10
2019-02-02T16:30:36.561Z,2.10
2019-02-02T16:35:40.524Z,2.10
2019-02-02T16:40:44.213Z,2.10
2019-02-02T16:45:47.982Z,2.10
2019-02-02T16:50:51.677Z,2.20
2019-02-02T16:55:55.490Z,2.10
2019-02-02T17:00:59.253Z,2.10
2019-02-02T17:06:03.288Z,2.10
2019-02-02T17:11:07.050Z,2.10
2019-02-02T17:16:10.745Z,2.10
2019-02-02T17:21:14.426Z,2.10
2019-02-02T17:26:18.291Z,2.00
2019-02-02T17:31:22.013Z,2.00
2019-02-02T17:36:25.772Z,2.00
2019-02-02T17:41:30.055Z,2.00
2019-02-02T17:46:33.995Z,1.90
2019-02-02T17:51:37.686Z,1.90
2019-02-02T17:56:41.380Z,1.90
2019-02-02T18:01:45.362Z,2.00
2019-02-02T18:06:49.078Z,1.90
2019-02-02T18:11:52.779Z,1.90
2019-02-02T18:16:57.760Z,1.90
2019-02-02T18:22:01.833Z,2.00
2019-02-02T18:27:05.910Z,1.90
2019-02-02T18:32:13.232Z,2.00
2019-02-02T18:37:15.133Z,2.00
2019-02-02T18:42:18.878Z,2.00
2019-02-02T18:47:22.758Z,2.00
2019-02-02T18:52:26.698Z,1.90
2019-02-02T18:57:32.016Z,2.00
2019-02-02T19:02:35.806Z,2.00
2019-02-02T19:07:41.293Z,2.00
2019-02-02T19:12:47.472Z,1.90
2019-02-02T19:17:51.234Z,2.00
2019-02-02T19:22:57.210Z,2.00
2019-02-02T19:28:01.268Z,2.00
2019-02-02T19:33:07.238Z,2.00
2019-02-02T19:38:13.689Z,2.00
2019-02-02T19:43:17.729Z,2.00
2019-02-02T19:48:21.422Z,2.00
2019-02-02T19:53:25.149Z,2.00
2019-02-02T19:58:28.966Z,2.00
2019-02-02T20:03:32.652Z,2.00
2019-02-02T20:08:37.620Z,2.10
2019-02-02T20:13:42.049Z,2.10
2019-02-02T20:18:48.114Z,2.10
2019-02-02T20:23:53.356Z,2.00
2019-02-02T20:29:05.260Z,2.00
2019-02-02T20:34:09.632Z,2.00
2019-02-02T20:39:14.039Z,2.00
2019-02-02T20:44:18.910Z,2.00
2019-02-02T20:49:24.038Z,2.00
2019-02-02T20:54:27.918Z,2.00
2019-02-02T20:59:32.390Z,2.00
2019-02-02T21:04:37.377Z,2.00
2019-02-02T21:09:41.935Z,2.00
2019-02-02T21:14:46.460Z,1.90
2019-02-02T21:19:53.368Z,2.00
2019-02-02T21:24:57.443Z,2.00
2019-02-02T21:30:02.606Z,2.00
2019-02-02T21:35:07.780Z,2.10
2019-02-02T21:40:15.941Z,2.10
2019-02-02T21:45:20.047Z,2.10
2019-02-02T21:50:26.017Z,2.10
2019-02-02T21:55:30.703Z,2.10
2019-02-02T22:00:39.831Z,2.10
2019-02-02T22:05:44.817Z,2.10
2019-02-02T22:10:49.882Z,2.20
2019-02-02T22:15:53.997Z,2.10
2019-02-02T22:20:57.769Z,2.20
2019-02-02T22:26:01.642Z,2.20
2019-02-02T22:31:05.491Z,2.20
2019-02-02T22:36:09.161Z,2.20
2019-02-02T22:41:12.850Z,2.20
2019-02-02T22:46:17.014Z,2.20
2019-02-02T22:51:20.697Z,2.20
2019-02-02T22:56:24.389Z,2.20
2019-02-02T23:01:32.703Z,2.20
2019-02-02T23:07:10.711Z,2.20
2019-02-02T23:12:27.062Z,2.20
2019-02-02T23:17:30.754Z,2.20
2019-02-02T23:22:34.617Z,2.20
2019-02-02T23:27:38.298Z,2.20
2019-02-02T23:32:41.982Z,2.20
2019-02-02T23:37:45.774Z,2.20
2019-02-02T23:42:49.469Z,2.20
2019-02-02T23:47:53.227Z,2.20
2019-02-02T23:52:56.909Z,2.20
2019-02-02T23:58:00.758Z,2.20
